Tiempo atmosférico en la estación meteorológica de La Aldea de San Nicolás, Las Palmas (318 m.)



Fecha
DESCASC
Temp. máxima en grados centígrados (hora)
DESCASC
Temp. mínima en grados centígrados (hora)
DESCASC
Temp. media en grados centígrados
DESCASC
Racha de viento máxima en m/sg (hora)
DESCASC
Velocidad máxima media en intervalos de 10 minutos(hora)
DESCASC
Precipitaciones diarias en mm
DESCASC
Precipitaciones de 00:00 a 06:00 en mm
DESCASC
Precipitaciones de 06:00 a 12:00 en mm
DESCASC
Precipitaciones de 12:00 a 18:00 en mm
DESCASC
Precipitaciones de 18:00 a 24:00 en mm
DESCASC
04-03-2021 22.8 (13:30) 12.8 (03:20) 17.8 16.94 (17:40) 7.78 (19:10) 0 0 0 0 0
03-03-2021 22.7 (14:00) 10.7 (07:40) 16.7 16.11 (20:50) 7.78 (19:20) 0 0 0 0 0
02-03-2021 23.2 (13:30) 11.7 (07:10) 17.5 13.61 (16:40) 9.17 (21:20) 0 0 0 0 0
01-03-2021 24.1 (13:50) 15.5 (07:50) 19.8 13.33 (20:50) 5.83 (19:30) 0.8 0.2 0.6 0 0
28-02-2021 23.1 (14:20) 14 (00:00) 18.6 13.33 (11:50) 6.39 (11:50) 2.6 2.2 0.4 0 0
27-02-2021 21.2 (13:00) 15.2 (00:00) 18.2 16.11 (15:30) 8.33 (01:30) 0.6 0 0 0.4 0.2
26-02-2021 21.9 (13:40) 16.1 (00:00) 19 21.67 (18:40) 10.28 (16:40) 0 0 0 0 0
25-02-2021 23.7 (12:00) 16.4 (00:00) 20.1 21.94 (13:30) 12.78 (13:50) 0 0 0 0 0
24-02-2021 23.8 (14:10) 13 (00:00) 18.4 20 (18:40) 11.11 (20:40) 0 0 0 0 0
23-02-2021 23.5 (14:40) 11.6 (00:00) 17.6 11.67 (19:20) 7.5 (19:20) 0 0 0 0 0
22-02-2021 22 (14:50) 11.8 (00:00) 16.9 11.11 (22:40) 6.39 (22:40) 0 0 0 0 0
21-02-2021 23.2 (14:00) 14.5 (00:00) 18.9 13.33 (02:10) 6.94 (00:30) 0.6 0.6 0 0 0
20-02-2021 24.6 (14:40) 10.3 (00:00) 17.5 15.28 (21:40) 7.5 (18:00) 0 0 0 0 0
19-02-2021 22.8 (15:10) 8.7 (00:00) 15.7 6.67 (13:20) 4.72 (14:50) 0 0 0 0 0
18-02-2021 24.4 (14:30) 9.1 (00:00) 16.8 11.67 (17:10) 7.22 (17:10) 0 0 0 0 0
17-02-2021 23.8 (13:00) 10 (00:00) 16.9 8.61 (13:30) 5 (13:40) 0 0 0 0 0
16-02-2021 24.5 (13:30) 14.2 (00:00) 19.3 10 (23:50) 5.83 (23:50) 0 0 0 0 0
15-02-2021 25.1 (17:30) 10 (00:00) 17.6 10.56 (10:20) 6.39 (10:20) 0 0 0 0 0
14-02-2021 22.4 (16:40) 10.5 (00:00) 16.4 8.06 (19:40) 5.83 (14:10) 0 0 0 0 0
13-02-2021 22.6 (13:50) 11.6 (00:00) 17.1 17.5 (02:30) 10.83 (02:00) 0 0 0 0 0
12-02-2021 22.8 (15:10) 13 (00:00) 17.9 17.78 (22:40) 10 (22:50) 0 0 0 0 0
11-02-2021 23.4 (16:10) 12.3 (00:00) 17.8 15.56 (23:50) 7.78 (22:40) 0 0 0 0 0
10-02-2021 22.5 (16:20) 11 (00:00) 16.8 7.22 (18:20) 4.17 (14:00) 0 0 0 0 0
09-02-2021 22 (12:30) 11.8 (00:00) 16.9 8.33 (12:50) 5 (12:50) 0 0 0 0 0
08-02-2021 22.1 (11:30) 13.1 (00:00) 17.6 10 (22:30) 6.39 (19:50) 0 0 0 0 0
07-02-2021 21.2 (16:30) 14.8 (00:00) 18 12.78 (15:10) 6.67 (18:40) 0.8 0.6 0.2 0 0
06-02-2021 21.2 (16:30) 14.6 (00:00) 17.9 17.22 (01:00) 8.61 (01:10) 0 0 0 0 0
05-02-2021 18.8 (15:40) 11.2 (00:00) 15 15.83 (23:40) 7.5 (22:30) 3.2 0.8 1 0.2 1.2
04-02-2021 20.3 (13:20) 13.1 (00:00) 16.7 11.11 (15:10) 6.67 (11:50) 6.8 0 0.8 0 6

Gráficas

Temp. máximas Temp. mínimas Temp. medias Precipitaciones Rachas de viento máximas Velocidades máximas media en intervalos de 10 minutos

Datos horarios

Fecha y hora oficial Temperatura (ºC) Velocidad del viento (km/h) Dirección del viento Racha (km/h) Dirección de racha Precipitación (mm) Presión (hPa) Tendencia (hPa) Humedad (%)
2021-03-05 23:00:00 16 20 Norte 48 Norte 0 -- -- 69
2021-03-05 22:00:00 15.6 23 Norte 47 Norte 0 -- -- 75
2021-03-05 21:00:00 16.2 29 Norte 59 Nordeste 0 -- -- 59
2021-03-05 20:00:00 16.3 24 Norte 45 Nordeste 0 -- -- 67
2021-03-05 19:00:00 16.8 26 Norte 45 Nordeste 0 -- -- 74
2021-03-05 18:00:00 18.3 26 Norte 64 Nordeste 0 -- -- 69
2021-03-05 17:00:00 18.8 37 Nordeste 60 Norte 0 -- -- 62
2021-03-05 16:00:00 19 33 Norte 57 Nordeste 0 -- -- 66
2021-03-05 15:00:00 21.3 22 Norte 57 Nordeste 0 -- -- 52
2021-03-05 14:00:00 20.6 24 Norte 48 Nordeste 0 -- -- 55
2021-03-05 13:00:00 20 23 Norte 51 Nordeste 0 -- -- 60
2021-03-05 12:00:00 19 32 Nordeste 55 Nordeste 0 -- -- 64
2021-03-05 11:00:00 19.2 24 Norte 48 Nordeste 0 -- -- 62
2021-03-05 10:00:00 17.9 21 Norte 44 Norte 0 -- -- 65
2021-03-05 09:00:00 16.9 24 Norte 42 Norte 0 -- -- 68
2021-03-05 08:00:00 16.4 18 Norte 37 Norte 0 -- -- 71
2021-03-05 07:00:00 16.3 13 Norte 32 Norte 0 -- -- 72
2021-03-05 06:00:00 16.4 20 Norte 28 Norte 0 -- -- 70
2021-03-05 05:00:00 15.9 10 Norte 35 Norte 0 -- -- 77
2021-03-05 04:00:00 16.1 24 Norte 33 Norte 0 -- -- 79
2021-03-05 03:00:00 17.1 20 Norte 30 Norte 0 -- -- 69
2021-03-05 02:00:00 17 17 Norte 38 Norte 0 -- -- 68
2021-03-05 01:00:00 16.9 25 Norte 39 Norte 0 -- -- 70
2021-03-05 00:00:00 16.9 20 Norte 41 Noroeste 0 -- -- 69
2021-03-04 23:00:00 16.6 18 Norte 35 Norte 0 -- -- 68
2021-03-04 22:00:00 15.7 24 Norte 41 Norte 0 -- -- 72
2021-03-04 21:00:00 15.8 17 Norte 34 Norte 0 -- -- 72
2021-03-04 20:00:00 16.7 11 Norte 31 Norte 0 -- -- 63
2021-03-04 19:00:00 16.8 14 Nordeste 31 Noroeste 0 -- -- 65
2021-03-04 18:00:00 18.3 11 Norte 37 Norte 0 -- -- 58
2021-03-04 17:00:00 18.5 18 Norte 29 Norte 0 -- -- 59
2021-03-04 16:00:00 21.6 15 Sudoeste 27 Sur 0 -- -- 51
2021-03-04 15:00:00 22.7 21 Sur 31 Sur 0 -- -- 53
2021-03-04 14:00:00 23.4 19 Sur 28 Sur 0 -- -- 53
2021-03-04 13:00:00 21.8 20 Sur 29 Sur 0 -- -- 56
2021-03-04 12:00:00 21.5 16 Sur 23 Nordeste 0 -- -- 56
2021-03-04 11:00:00 18.2 9 Nordeste 17 Nordeste 0 -- -- 56
2021-03-04 10:00:00 16.3 0 Calma 6 Norte 0 -- -- 67
2021-03-04 09:00:00 13.5 4 Norte 13 Norte 0 -- -- 74
2021-03-04 08:00:00 12.4 5 Nordeste 10 Norte 0 -- -- 76
2021-03-04 07:00:00 12.1 6 Norte 9 Norte 0 -- -- 77
2021-03-04 06:00:00 12.6 0 Calma 17 Norte 0 -- -- 78
2021-03-04 05:00:00 12.6 4 Norte 11 Norte 0 -- -- 77
2021-03-04 04:00:00 13 4 Norte 13 Noroeste 0 -- -- 76
2021-03-04 03:00:00 13.5 8 Norte 18 Nordeste 0 -- -- 75
2021-03-04 02:00:00 13.5 6 Nordeste 12 Norte 0 -- -- 75
2021-03-04 01:00:00 14.1 4 Nordeste 23 Nordeste 0 -- -- 73
2021-03-04 00:00:00 14.7 12 Nordeste 19 Nordeste 0 -- -- 72
2021-03-03 23:00:00 15.3 9 Nordeste 21 Nordeste 0 -- -- 71
2021-03-03 22:00:00 15.5 12 Nordeste 22 Nordeste 0 -- -- 71
2021-03-03 21:00:00 15.6 12 Nordeste 22 Nordeste 0 -- -- 71
2021-03-03 20:00:00 15.9 12 Nordeste 22 Este 0 -- -- 71
2021-03-03 19:00:00 17.2 9 Nordeste 18 Este 0 -- -- 66
2021-03-03 18:00:00 19.8 10 Sur 23 Sur 0 -- -- 64
2021-03-03 17:00:00 20.6 18 Sur 28 Sur 0 -- -- 61
2021-03-03 16:00:00 22.9 17 Sur 30 Sur 0 -- -- 54
2021-03-03 15:00:00 23.1 21 Sur 31 Sur 0 -- -- 52
2021-03-03 14:00:00 22.4 21 Sur 31 Sur 0 -- -- 51
2021-03-03 13:00:00 22 22 Sur 30 Sur 0 -- -- 53
2021-03-03 12:00:00 20.6 17 Sur 27 Sur 0 -- -- 57
2021-03-03 11:00:00 19.9 12 Sur 18 Sudoeste 0 -- -- 60
2021-03-03 10:00:00 17.5 7 Sur 13 Sur 0 -- -- 69
2021-03-03 09:00:00 14.4 3 Norte 9 Norte 0 -- -- 81
2021-03-03 08:00:00 13 5 Nordeste 13 Norte 0 -- -- 83
2021-03-03 07:00:00 12 4 Norte 10 Norte 0 -- -- 84
2021-03-03 06:00:00 12.2 3 Nordeste 12 Norte 0 -- -- 81
2021-03-03 05:00:00 13.1 5 Norte 13 Norte 0 -- -- 77
2021-03-03 04:00:00 13.3 8 Norte 13 Norte 0 -- -- 80
2021-03-03 03:00:00 13.5 9 Norte 10 Norte 0 -- -- 81
2021-03-03 02:00:00 13.6 0 Calma 8 Norte 0 -- -- 80
2021-03-03 01:00:00 13.7 5 Norte 10 Norte 0 -- -- 79
2021-03-03 00:00:00 14.4 7 Norte 16 Nordeste 0 -- -- 77
2021-03-02 23:00:00 14.8 9 Norte 14 Nordeste 0 -- -- 77
2021-03-02 22:00:00 15.7 3 Oeste 10 Sur 0 -- -- 81
2021-03-02 21:00:00 16.3 2 Sur 14 Sur 0 -- -- 78
2021-03-02 20:00:00 16.8 9 Sur 18 Sur 0 -- -- 76
2021-03-02 19:00:00 17.9 14 Sur 17 Sur 0 -- -- 68
2021-03-02 18:00:00 18.9 9 Sur 22 Sur 0 -- -- 63
2021-03-02 17:00:00 19.5 18 Sur 24 Sur 0 -- -- 55
2021-03-02 16:00:00 19.4 5 Sudoeste 14 Sur 0 -- -- 56
2021-03-02 15:00:00 19.1 14 Sur 27 Sur 0 -- -- 64
2021-03-02 14:00:00 19.2 19 Sur 26 Sur 0 -- -- 64
2021-03-02 13:00:00 19.1 15 Sur 26 Sur 0 -- -- 63
2021-03-02 12:00:00 18.3 14 Sur 24 Sur 0 -- -- 64
2021-03-02 11:00:00 19.1 15 Sur 21 Sur 0 -- -- 62
2021-03-02 10:00:00 16.8 3 Sudoeste 9 Sur 0 -- -- 58
2021-03-02 09:00:00 13.7 6 Nordeste 11 Norte 0 -- -- 71
2021-03-02 08:00:00 12.3 4 Norte 17 Norte 0 -- -- 75
2021-03-02 07:00:00 12 8 Norte 13 Norte 0 -- -- 75
2021-03-02 06:00:00 12.3 6 Norte 10 Norte 0 -- -- 73
2021-03-02 05:00:00 13 6 Norte 11 Nordeste 0 -- -- 70
2021-03-02 04:00:00 13.8 5 Nordeste 9 Norte 0 -- -- 69
2021-03-02 03:00:00 14.5 3 Noroeste 16 Nordeste 0 -- -- 70
2021-03-02 02:00:00 14.6 9 Nordeste 18 Nordeste 0 -- -- 72
2021-03-02 01:00:00 14.4 10 Norte 16 Norte 0 -- -- 72
2021-03-02 00:00:00 14.8 9 Norte 14 Norte 0 -- -- 72
2021-03-01 23:00:00 15.5 11 Norte 22 Norte 0 -- -- 66
2021-03-01 22:00:00 15.5 10 Norte 22 Norte 0 -- -- 68
2021-03-01 21:00:00 15.7 17 Norte 28 Norte 0 -- -- 69
2021-03-01 20:00:00 16 16 Norte 36 Norte 0 -- -- 62
2021-03-01 19:00:00 16.1 19 Norte 35 Norte 0 -- -- 64
2021-03-01 18:00:00 16.5 22 Norte 33 Norte 0 -- -- 62
2021-03-01 17:00:00 17.7 23 Norte 44 Noroeste 0 -- -- 58
2021-03-01 16:00:00 17.9 28 Norte 48 Norte 0 -- -- 58
2021-03-01 15:00:00 17.8 36 Norte 53 Noroeste 0 -- -- 62
2021-03-01 14:00:00 18 27 Noroeste 42 Noroeste 0 -- -- 59
2021-03-01 13:00:00 18.4 20 Nordeste 36 Norte 0 -- -- 52
2021-03-01 12:00:00 18.1 16 Norte 31 Norte 0 -- -- 53
2021-03-01 11:00:00 17 15 Norte 32 Nordeste 0 -- -- 62
2021-03-01 10:00:00 16.3 16 Norte 40 Nordeste 0 -- -- 62
2021-03-01 09:00:00 15 19 Norte 30 Norte 0 -- -- 73
2021-03-01 08:00:00 14 9 Norte 25 Norte 0 -- -- 80
2021-03-01 07:00:00 14.6 20 Norte 33 Norte 0 -- -- 74
2021-03-01 06:00:00 14.7 17 Norte 32 Norte 0 -- -- 72
2021-03-01 05:00:00 14.7 15 Norte 33 Nordeste 0 -- -- 70
2021-03-01 04:00:00 14.6 18 Norte 53 Nordeste 0.2 -- -- 74
2021-03-01 03:00:00 15.1 22 Norte 38 Nordeste 0 -- -- 66
2021-03-01 02:00:00 15.1 18 Norte 40 Nordeste 0 -- -- 69
2021-03-01 01:00:00 14.9 11 Norte 26 Norte 0 -- -- 70
2021-03-01 00:00:00 14.9 13 Norte 41 Nordeste 0 -- -- 65
2021-02-28 23:00:00 14.7 12 Norte 24 Norte 0 -- -- 67
2021-02-28 22:00:00 14.9 24 Norte 35 Noroeste 0 -- -- 69
2021-02-28 21:00:00 15.1 17 Norte 27 Noroeste 0 -- -- 72
2021-02-28 20:00:00 15.2 15 Noroeste 30 Norte 0 -- -- 68
2021-02-28 19:00:00 15.7 14 Norte 25 Noroeste 0 -- -- 68
2021-02-28 18:00:00 17.1 15 Norte 28 Noroeste 0 -- -- 59
2021-02-28 17:00:00 18 16 Norte 36 Noroeste 0 -- -- 59
2021-02-28 16:00:00 17.9 22 Norte 39 Noroeste 0 -- -- 58
2021-02-28 15:00:00 17 23 Noroeste 35 Norte 0 -- -- 62
2021-02-28 14:00:00 18 13 Norte 33 Norte 0 -- -- 60
2021-02-28 13:00:00 16.1 15 Norte 36 Noroeste 0 -- -- 62
2021-02-28 12:00:00 16.8 17 Norte 30 Norte 0 -- -- 62
2021-02-28 11:00:00 15.9 17 Norte 28 Nordeste 0 -- -- 66
2021-02-28 10:00:00 15 9 Norte 22 Noroeste 0 -- -- 75
2021-02-28 09:00:00 14 12 Norte 26 Norte 0 -- -- 79
2021-02-28 08:00:00 13.6 14 Norte 39 Norte 0.2 -- -- 80
2021-02-28 07:00:00 13.3 13 Norte 33 Nordeste 0.2 -- -- 83
2021-02-28 06:00:00 12.8 16 Norte 40 Norte 1.8 -- -- 85
2021-02-28 05:00:00 12.9 14 Norte 37 Norte 0.6 -- -- 84
2021-02-28 04:00:00 13.7 20 Norte 34 Norte 0 -- -- 77
2021-02-28 03:00:00 13 17 Norte 36 Norte 0.6 -- -- 82
2021-02-28 02:00:00 12.7 13 Norte 39 Nordeste 1 -- -- 84
2021-02-28 01:00:00 12.2 14 Norte 36 Norte 0.2 -- -- 86
2021-02-28 00:00:00 13 13 Norte 33 Nordeste 0 -- -- 76
2021-02-27 23:00:00 13.6 17 Norte 38 Nordeste 0 -- -- 74
2021-02-27 22:00:00 13.9 13 Norte 41 Nordeste 0 -- -- 64
2021-02-27 21:00:00 14 24 Norte 46 Noroeste 0 -- -- 63
2021-02-27 20:00:00 14 22 Norte 45 Nordeste 0 -- -- 62
2021-02-27 19:00:00 14.4 27 Nordeste 59 Nordeste 0 -- -- 58
2021-02-27 18:00:00 14.8 27 Norte 51 Norte 0 -- -- 61
2021-02-27 17:00:00 15.7 22 Norte 48 Norte 0 -- -- 57
2021-02-27 16:00:00 15.4 28 Norte 58 Norte 0 -- -- 61
2021-02-27 15:00:00 15.5 28 Nordeste 52 Nordeste 0 -- -- 62
2021-02-27 14:00:00 14.9 26 Nordeste 49 Nordeste 0 -- -- 60
2021-02-27 13:00:00 14.7 28 Nordeste 47 Nordeste 0 -- -- 59
2021-02-27 12:00:00 15.4 21 Nordeste 42 Nordeste 0 -- -- 58
2021-02-27 11:00:00 15.1 19 Norte 42 Nordeste 0 -- -- 59
2021-02-27 10:00:00 14.8 23 Nordeste 46 Nordeste 0 -- -- 57
2021-02-27 09:00:00 14.4 27 Nordeste 47 Nordeste 0 -- -- 51
2021-02-27 08:00:00 13.8 24 Norte 59 Norte 0 -- -- 56
2021-02-27 07:00:00 13.6 26 Norte 56 Nordeste 0 -- -- 56
2021-02-27 06:00:00 13.4 25 Norte 46 Norte 0 -- -- 54
2021-02-27 05:00:00 13.5 22 Norte 42 Norte 0 -- -- 58
2021-02-27 04:00:00 13.8 16 Norte 41 Nordeste 0 -- -- 63
2021-02-27 03:00:00 14.1 18 Norte 39 Norte 0 -- -- 64
2021-02-27 02:00:00 14.4 15 Norte 38 Noroeste 0 -- -- 67
2021-02-27 01:00:00 14.6 14 Norte 43 Nordeste 0 -- -- 59
2021-02-27 00:00:00 14.8 23 Norte 48 Nordeste 0 -- -- 60
2021-02-26 23:00:00 14.7 17 Norte 42 Norte 0 -- -- 61
2021-02-26 22:00:00 14.9 17 Norte 43 Norte 0 -- -- 62
2021-02-26 21:00:00 14.6 18 Norte 38 Nordeste 0 -- -- 67
2021-02-26 20:00:00 15.2 21 Norte 42 Nordeste 0 -- -- 58
2021-02-26 19:00:00 15.7 22 Norte 46 Norte 0 -- -- 58
2021-02-26 18:00:00 16.6 23 Norte 54 Norte 0 -- -- 56
2021-02-26 17:00:00 17.1 28 Norte 62 Norte 0 -- -- 48
2021-02-26 16:00:00 17.6 24 Norte 56 Norte 0 -- -- 52
2021-02-26 15:00:00 17.5 32 Norte 60 Norte 0 -- -- 49
2021-02-26 14:00:00 17.7 27 Norte 57 Norte 0 -- -- 51
2021-02-26 13:00:00 17.4 28 Norte 58 Norte 0 -- -- 47
2021-02-26 12:00:00 16.6 29 Norte 58 Norte 0 -- -- 52
2021-02-26 11:00:00 16.4 28 Norte 59 Norte 0 -- -- 50
2021-02-26 10:00:00 15.7 21 Norte 52 Nordeste 0 -- -- 56
2021-02-26 09:00:00 15 25 Norte 53 Norte 0 -- -- 58
2021-02-26 08:00:00 14.6 20 Norte 43 Norte 0 -- -- 55
2021-02-26 07:00:00 14.4 21 Norte 41 Nordeste 0 -- -- 50
2021-02-26 06:00:00 14.6 20 Norte 44 Nordeste 0 -- -- 56
2021-02-26 05:00:00 14.4 17 Norte 46 Nordeste 0 -- -- 57
2021-02-26 04:00:00 14.7 22 Norte 47 Norte 0 -- -- 53
2021-02-26 03:00:00 14.7 24 Norte 47 Nordeste 0 -- -- 55
2021-02-26 02:00:00 14.3 23 Norte 54 Norte 0 -- -- 55
2021-02-26 01:00:00 14.6 23 Norte 49 Norte 0 -- -- 44
2021-02-26 00:00:00 14.9 23 Norte 50 Norte 0 -- -- 46
2021-02-25 23:00:00 15.5 25 Norte 47 Nordeste 0 -- -- 44
2021-02-25 22:00:00 15.9 24 Norte 55 Norte 0 -- -- 55
2021-02-25 21:00:00 16.2 17 Norte 39 Norte 0 -- -- 53
2021-02-25 20:00:00 16.7 17 Norte 43 Norte 0 -- -- 55
2021-02-25 19:00:00 17.2 25 Norte 38 Norte 0 -- -- 62
2021-02-25 18:00:00 19.5 22 Norte 40 Norte 0 -- -- 56
2021-02-25 17:00:00 19.8 19 Norte 45 Norte 0 -- -- 60
2021-02-25 16:00:00 19.3 29 Norte 51 Norte 0 -- -- 64
2021-02-25 15:00:00 19.2 31 Norte 48 Norte 0 -- -- 67
2021-02-25 14:00:00 20.7 17 Norte 33 Norte 0 -- -- 61
2021-02-25 13:00:00 24.2 18 Sur 25 Sur 0 -- -- 55
2021-02-25 12:00:00 22.7 16 Sur 25 Sur 0 -- -- 60
2021-02-25 11:00:00 21.9 13 Sur 19 Sur 0 -- -- 60
2021-02-25 10:00:00 18.8 3 Sudeste 14 Sur 0 -- -- 69
2021-02-25 09:00:00 16.4 4 Sudeste 21 Nordeste 0 -- -- 66
2021-02-25 08:00:00 15 2 Sur 17 Nordeste 0 -- -- 70
2021-02-25 07:00:00 15 4 Sur 8 Sur 0 -- -- 69
2021-02-25 06:00:00 16.3 6 Sudoeste 24 Nordeste 0 -- -- 63
2021-02-25 05:00:00 16.9 14 Nordeste 26 Nordeste 0 -- -- 62
2021-02-25 04:00:00 16.9 14 Nordeste 31 Nordeste 0 -- -- 63
2021-02-25 03:00:00 17.1 16 Nordeste 39 Nordeste 0 -- -- 62
2021-02-25 02:00:00 17.1 22 Este 40 Nordeste 0 -- -- 64
2021-02-25 01:00:00 17.2 21 Nordeste 44 Nordeste 0 -- -- 63
2021-02-25 00:00:00 17.2 19 Nordeste 39 Nordeste 0 -- -- 65
2021-02-24 23:00:00 17.7 14 Nordeste 37 Este 0 -- -- 58
2021-02-24 22:00:00 17.3 19 Nordeste 39 Nordeste 0 -- -- 65
2021-02-24 21:00:00 17.3 22 Nordeste 40 Este 0 -- -- 70
2021-02-24 20:00:00 17.3 18 Nordeste 32 Nordeste 0 -- -- 74
2021-02-24 19:00:00 17.9 23 Nordeste 35 Nordeste 0 -- -- 71
2021-02-24 18:00:00 20 16 Nordeste 33 Norte 0 -- -- 64
2021-02-24 17:00:00 19.7 27 Norte 37 Norte 0 -- -- 64
2021-02-24 16:00:00 20.1 24 Norte 37 Norte 0 -- -- 61
2021-02-24 15:00:00 20.1 24 Norte 44 Norte 0 -- -- 62
2021-02-24 14:00:00 20.1 26 Norte 37 Norte 0 -- -- 61
2021-02-24 13:00:00 19.7 23 Norte 42 Norte 0 -- -- 61
2021-02-24 12:00:00 19 23 Norte 39 Norte 0 -- -- 62
2021-02-24 11:00:00 18.7 18 Norte 31 Este 0 -- -- 57
2021-02-24 10:00:00 18.2 8 Nordeste 20 Nordeste 0 -- -- 50
2021-02-24 09:00:00 14.8 5 Norte 12 Norte 0 -- -- 60
2021-02-24 08:00:00 14 8 Norte 18 Norte 0 -- -- 58
2021-02-24 07:00:00 14.6 9 Norte 28 Nordeste 0 -- -- 67
2021-02-24 06:00:00 15.4 14 Nordeste 28 Nordeste 0 -- -- 58
2021-02-24 05:00:00 15 14 Nordeste 24 Este 0 -- -- 64
2021-02-24 04:00:00 15.4 18 Nordeste 31 Nordeste 0 -- -- 63
2021-02-24 03:00:00 15.4 12 Nordeste 31 Nordeste 0 -- -- 63
2021-02-24 02:00:00 15.6 21 Nordeste 31 Nordeste 0 -- -- 67
2021-02-24 01:00:00 14.5 10 Norte 14 Nordeste 0 -- -- 77
2021-02-24 00:00:00 14.6 5 Norte 12 Norte 0 -- -- 83
2021-02-23 23:00:00 15.2 9 Norte 12 Norte 0 -- -- 82
2021-02-23 22:00:00 15.7 3 Nordeste 8 Norte 0 -- -- 79
2021-02-23 21:00:00 16.4 3 Este 13 Nordeste 0 -- -- 79
2021-02-23 20:00:00 16.9 6 Nordeste 11 Nordeste 0 -- -- 78
2021-02-23 19:00:00 18.3 6 Sur 20 Sur 0 -- -- 75
2021-02-23 18:00:00 19.7 17 Sur 24 Sur 0 -- -- 70
2021-02-23 17:00:00 21 15 Sur 29 Sur 0 -- -- 64
2021-02-23 16:00:00 23.7 18 Sur 30 Sur 0 -- -- 55
2021-02-23 15:00:00 23.6 20 Sur 33 Sur 0 -- -- 57
2021-02-23 14:00:00 22.1 21 Sur 31 Sur 0 -- -- 58
2021-02-23 13:00:00 23.1 21 Sur 30 Sur 0 -- -- 53
2021-02-23 12:00:00 22.2 15 Sur 23 Sur 0 -- -- 60
2021-02-23 11:00:00 19.7 6 Sur 13 Sur 0 -- -- 65
2021-02-23 10:00:00 16.8 6 Sur 9 Sur 0 -- -- 74
2021-02-23 09:00:00 13.5 0 Calma 10 Norte 0 -- -- 83
2021-02-23 08:00:00 12.9 5 Norte 8 Norte 0 -- -- 80
2021-02-23 07:00:00 13.2 4 Norte 8 Nordeste 0 -- -- 79
2021-02-23 06:00:00 13.7 2 Nordeste 6 Norte 0 -- -- 78
2021-02-23 05:00:00 14.6 3 Nordeste 10 Norte 0 -- -- 77
2021-02-23 04:00:00 14.9 6 Norte 19 Norte 0 -- -- 78
2021-02-23 03:00:00 14.9 10 Norte 18 Nordeste 0 -- -- 80
2021-02-23 02:00:00 13.8 0 Calma 6 Norte 0 -- -- 84
2021-02-23 01:00:00 14.3 0 Calma 4 Sudeste 0 -- -- 83
2021-02-23 00:00:00 14.5 0 Calma 7 Nordeste 0 -- -- 84
2021-02-22 23:00:00 14.7 0 Calma 5 Nordeste 0 -- -- 83
2021-02-22 22:00:00 15 4 Norte 6 Sudeste 0 -- -- 82
2021-02-22 21:00:00 15.4 4 Norte 9 Norte 0 -- -- 80
2021-02-22 20:00:00 16.2 0 Calma 15 Sur 0 -- -- 78
2021-02-22 19:00:00 17.2 12 Sur 17 Sur 0 -- -- 73
2021-02-22 18:00:00 19.7 11 Sur 26 Sur 0 -- -- 65
2021-02-22 17:00:00 21.1 21 Sur 28 Sur 0 -- -- 60
2021-02-22 16:00:00 21.6 22 Sur 32 Sur 0 -- -- 59
2021-02-22 15:00:00 19.9 12 Sur 23 Sur 0 -- -- 63
2021-02-22 14:00:00 19.7 15 Sur 23 Sudoeste 0 -- -- 64
2021-02-22 13:00:00 18.8 17 Sur 24 Sur 0 -- -- 67
2021-02-22 12:00:00 18.2 12 Sur 22 Sur 0 -- -- 67
2021-02-22 11:00:00 18.6 12 Sur 18 Sur 0 -- -- 67
2021-02-22 10:00:00 16.6 6 Sur 10 Sur 0 -- -- 74
2021-02-22 09:00:00 13.6 5 Nordeste 10 Nordeste 0 -- -- 82
2021-02-22 08:00:00 12.8 6 Norte 10 Norte 0 -- -- 81
2021-02-22 07:00:00 13.2 6 Nordeste 12 Norte 0 -- -- 81
2021-02-22 06:00:00 13.4 7 Norte 13 Nordeste 0 -- -- 80
2021-02-22 05:00:00 13.8 8 Nordeste 12 Nordeste 0 -- -- 79
2021-02-22 04:00:00 14.1 3 Norte 12 Norte 0 -- -- 76
2021-02-22 03:00:00 14.1 8 Norte 11 Norte 0 -- -- 76
2021-02-22 02:00:00 14.2 7 Norte 10 Norte 0 -- -- 76
2021-02-22 01:00:00 13.8 4 Norte 8 Norte 0 -- -- 78
2021-02-22 00:00:00 14.4 4 Nordeste 6 Nordeste 0 -- -- 74
2021-02-21 23:00:00 15.3 4 Nordeste 12 Norte 0 -- -- 70
2021-02-21 22:00:00 16.2 7 Nordeste 13 Nordeste 0 -- -- 67
2021-02-21 21:00:00 16.3 10 Nordeste 15 Nordeste 0 -- -- 66
2021-02-21 20:00:00 17.4 11 Sur 22 Sur 0 -- -- 64
2021-02-21 19:00:00 17.6 11 Sur 19 Nordeste 0 -- -- 65
2021-02-21 18:00:00 19.3 6 Sur 20 Sur 0 -- -- 58
2021-02-21 17:00:00 19.9 10 Sur 26 Sur 0 -- -- 57
2021-02-21 16:00:00 21.6 15 Sur 29 Sur 0 -- -- 53
2021-02-21 15:00:00 21.6 16 Sur 26 Sur 0 -- -- 54
2021-02-21 14:00:00 20.6 10 Sur 38 Norte 0 -- -- 51
2021-02-21 13:00:00 19 21 Norte 33 Norte 0 -- -- 50
2021-02-21 12:00:00 18.3 20 Norte 36 Norte 0 -- -- 52
2021-02-21 11:00:00 17.8 19 Norte 47 Norte 0 -- -- 54
2021-02-21 10:00:00 16.9 22 Norte 43 Norte 0 -- -- 56
2021-02-21 09:00:00 15.9 19 Norte 40 Nordeste 0 -- -- 57
2021-02-21 08:00:00 15.6 18 Norte 41 Nordeste 0 -- -- 60
2021-02-21 07:00:00 15.3 20 Norte 37 Norte 0 -- -- 66
2021-02-21 06:00:00 15.3 21 Norte 42 Norte 0 -- -- 71
2021-02-21 05:00:00 15.7 22 Norte 35 Nordeste 0 -- -- 76
2021-02-21 04:00:00 15.8 27 Nordeste 48 Nordeste 0 -- -- 76
2021-02-21 03:00:00 15.3 26 Norte 46 Norte 0 -- -- 82
2021-02-21 02:00:00 16.3 27 Norte 44 Norte 0 -- -- 76
2021-02-21 01:00:00 16.7 22 Norte 34 Norte 0 -- -- 81
2021-02-21 00:00:00 17.7 10 Sur 34 Sur 0 -- -- 77
2021-02-20 23:00:00 17.6 24 Sur 44 Sur 0 -- -- 82
2021-02-20 22:00:00 17.6 17 Sur 39 Sur 0 -- -- 90
2021-02-20 21:00:00 17.4 21 Sur 44 Sur 0 -- -- 90
2021-02-20 20:00:00 17.3 29 Sur 47 Sur 0 -- -- 87
2021-02-20 19:00:00 17.3 28 Sur 38 Sur 0 -- -- 85
2021-02-20 18:00:00 17.4 24 Sur 45 Sur 0 -- -- 81
2021-02-20 17:00:00 17.8 17 Sur 42 Sur 0 -- -- 78
2021-02-20 16:00:00 18.6 19 Sur 33 Sur 0 -- -- 71
2021-02-20 15:00:00 20.9 17 Sur 31 Sur 0 -- -- 61
2021-02-20 14:00:00 22.5 17 Sur 33 Sur 0 -- -- 55
2021-02-20 13:00:00 21 15 Sudoeste 31 Sur 0 -- -- 57
2021-02-20 12:00:00 19.3 13 Sur 28 Sur 0 -- -- 62
2021-02-20 11:00:00 20 19 Sur 27 Sur 0 -- -- 62
2021-02-20 10:00:00 17.8 4 Sur 9 Sur 0 -- -- 62
2021-02-20 09:00:00 15 3 Nordeste 9 Norte 0 -- -- 33
2021-02-20 08:00:00 14.2 5 Norte 12 Norte 0 -- -- 30
2021-02-20 07:00:00 14 7 Norte 12 Norte 0 -- -- 32
2021-02-20 06:00:00 13.4 5 Norte 12 Norte 0 -- -- 34
2021-02-20 05:00:00 13.3 6 Norte 12 Norte 0 -- -- 36
2021-02-20 04:00:00 13.6 3 Nordeste 8 Norte 0 -- -- 33
2021-02-20 03:00:00 14.9 5 Norte 11 Norte 0 -- -- 29
2021-02-20 02:00:00 15.2 2 Nordeste 12 Norte 0 -- -- 27
2021-02-20 01:00:00 14.8 4 Norte 13 Norte 0 -- -- 30
2021-02-20 00:00:00 14.7 7 Norte 10 Norte 0 -- -- 30
2021-02-19 23:00:00 15 4 Norte 10 Norte 0 -- -- 29
2021-02-19 22:00:00 15.7 6 Norte 10 Norte 0 -- -- 28
2021-02-19 21:00:00 16.1 5 Norte 11 Norte 0 -- -- 32
2021-02-19 20:00:00 16.9 6 Norte 10 Sur 0 -- -- 32
2021-02-19 19:00:00 19.3 4 Sur 15 Sur 0 -- -- 30
2021-02-19 18:00:00 22.5 13 Sur 23 Sur 0 -- -- 22
2021-02-19 17:00:00 24.1 16 Sur 24 Sur 0 -- -- 21
2021-02-19 16:00:00 24.3 20 Sur 28 Sur 0 -- -- 23
2021-02-19 15:00:00 25.1 19 Sur 30 Sur 0 -- -- 28
2021-02-19 14:00:00 24.7 21 Sur 28 Sur 0 -- -- 28
2021-02-19 13:00:00 23.9 19 Sur 27 Sur 0 -- -- 30
2021-02-19 12:00:00 23.2 11 Sur 17 Sudoeste 0 -- -- 35
2021-02-19 11:00:00 20.5 6 Sur 11 Sur 0 -- -- 35
2021-02-19 10:00:00 17.8 5 Sur 10 Sur 0 -- -- 39
2021-02-19 09:00:00 14.8 3 Nordeste 12 Norte 0 -- -- 42
2021-02-19 08:00:00 13.7 6 Norte 15 Norte 0 -- -- 46
2021-02-19 07:00:00 13.1 5 Norte 13 Norte 0 -- -- 49
2021-02-19 06:00:00 13.2 5 Nordeste 10 Nordeste 0 -- -- 50
2021-02-19 05:00:00 13.4 6 Norte 12 Norte 0 -- -- 50
2021-02-19 04:00:00 13.7 4 Norte 10 Norte 0 -- -- 52
2021-02-19 03:00:00 13.6 4 Norte 10 Nordeste 0 -- -- 52
2021-02-19 02:00:00 14.2 0 Calma 8 Norte 0 -- -- 51
2021-02-19 01:00:00 14.4 0 Calma 9 Norte 0 -- -- 53
2021-02-19 00:00:00 14.6 5 Norte 11 Norte 0 -- -- 56
2021-02-18 23:00:00 14.6 4 Norte 6 Norte 0 -- -- 60
2021-02-18 22:00:00 15.3 5 Norte 7 Norte 0 -- -- 60
2021-02-18 21:00:00 15.8 3 Norte 7 Norte 0 -- -- 61
2021-02-18 20:00:00 17 0 Calma 11 Sudoeste 0 -- -- 57
2021-02-18 19:00:00 18.5 9 Sur 16 Sur 0 -- -- 58
2021-02-18 18:00:00 20.9 13 Sur 23 Sur 0 -- -- 42
2021-02-18 17:00:00 22.8 15 Sur 25 Sur 0 -- -- 32
2021-02-18 16:00:00 23.3 21 Sur 28 Sur 0 -- -- 24
2021-02-18 15:00:00 23.8 21 Sur 30 Sur 0 -- -- 23
2021-02-18 14:00:00 23.8 19 Sur 26 Sur 0 -- -- 22
2021-02-18 13:00:00 22.9 21 Sur 27 Sur 0 -- -- 26
2021-02-18 12:00:00 22.5 16 Sur 20 Sur 0 -- -- 32
2021-02-18 11:00:00 20.4 9 Sur 13 Sur 0 -- -- 27
2021-02-18 10:00:00 17.1 0 Calma 5 Norte 0 -- -- 30
2021-02-18 09:00:00 14.8 3 Nordeste 12 Norte 0 -- -- 33
2021-02-18 08:00:00 13.8 8 Nordeste 13 Nordeste 0 -- -- 32
2021-02-18 07:00:00 13.9 7 Norte 11 Norte 0 -- -- 33
2021-02-18 06:00:00 13.3 5 Norte 10 Norte 0 -- -- 37
2021-02-18 05:00:00 13.3 7 Norte 10 Norte 0 -- -- 42
2021-02-18 04:00:00 12.9 5 Norte 10 Norte 0 -- -- 49
2021-02-18 03:00:00 13.1 6 Norte 11 Norte 0 -- -- 50
2021-02-18 02:00:00 13.5 5 Norte 12 Norte 0 -- -- 53
2021-02-18 01:00:00 13.6 3 Nordeste 10 Norte 0 -- -- 56
2021-02-18 00:00:00 13.8 7 Norte 10 Norte 0 -- -- 57
2021-02-17 23:00:00 13.8 3 Nordeste 8 Norte 0 -- -- 60
2021-02-17 22:00:00 14.6 3 Nordeste 8 Norte 0 -- -- 58
2021-02-17 21:00:00 15.6 0 Calma 11 Nordeste 0 -- -- 55
2021-02-17 20:00:00 16.4 7 Nordeste 16 Nordeste 0 -- -- 52
2021-02-17 19:00:00 17.2 10 Nordeste 17 Sur 0 -- -- 49
2021-02-17 18:00:00 20.1 12 Sur 25 Sur 0 -- -- 43
2021-02-17 17:00:00 22.1 20 Sur 26 Sur 0 -- -- 36
2021-02-17 16:00:00 23 15 Sur 25 Sur 0 -- -- 32
2021-02-17 15:00:00 22.7 17 Sur 28 Sur 0 -- -- 33
2021-02-17 14:00:00 23.1 19 Sur 32 Sur 0 -- -- 32
2021-02-17 13:00:00 21.7 14 Sur 27 Sur 0 -- -- 32
2021-02-17 12:00:00 19.9 8 Noroeste 25 Norte 0 -- -- 26
2021-02-17 11:00:00 19.3 5 Oeste 20 Sudeste 0 -- -- 26
2021-02-17 10:00:00 18.6 10 Sudeste 33 Norte 0 -- -- 25
2021-02-17 09:00:00 17.1 20 Norte 43 Norte 0 -- -- 20
2021-02-17 08:00:00 16.9 20 Norte 37 Norte 0 -- -- 21
2021-02-17 07:00:00 17.2 18 Norte 39 Norte 0 -- -- 20
2021-02-17 06:00:00 17.8 17 Norte 36 Norte 0 -- -- 20
2021-02-17 05:00:00 18.1 14 Norte 37 Norte 0 -- -- 21
2021-02-17 04:00:00 18.3 15 Norte 39 Norte 0 -- -- 25
2021-02-17 03:00:00 18.8 22 Norte 38 Norte 0 -- -- 25
2021-02-17 02:00:00 19.3 17 Norte 28 Norte 0 -- -- 24
2021-02-17 01:00:00 19.6 14 Norte 26 Sur 0 -- -- 22
2021-02-17 00:00:00 19.8 9 Norte 21 Norte 0 -- -- 19
2021-02-16 23:00:00 18 6 Norte 16 Noroeste 0 -- -- 24
2021-02-16 22:00:00 16.8 4 Norte 13 Este 0 -- -- 34
2021-02-16 21:00:00 17.6 3 Sudoeste 13 Nordeste 0 -- -- 33
2021-02-16 20:00:00 19.5 7 Norte 17 Norte 0 -- -- 25
2021-02-16 19:00:00 19.6 4 Noroeste 18 Norte 0 -- -- 24
2021-02-16 18:00:00 21.2 12 Nordeste 24 Sudeste 0 -- -- 27
2021-02-16 17:00:00 24.1 15 Sudoeste 38 Oeste 0 -- -- 18
2021-02-16 16:00:00 24.8 15 Sur 30 Sur 0 -- -- 24
2021-02-16 15:00:00 24.4 19 Sur 33 Sur 0 -- -- 30
2021-02-16 14:00:00 23.2 11 Sudeste 31 Sudeste 0 -- -- 24
2021-02-16 13:00:00 22.6 8 Sur 22 Sudeste 0 -- -- 29
2021-02-16 12:00:00 20.8 8 Nordeste 33 Noroeste 0 -- -- 30
2021-02-16 11:00:00 19.5 17 Norte 44 Norte 0 -- -- 31
2021-02-16 10:00:00 18.8 17 Norte 36 Norte 0 -- -- 31
2021-02-16 09:00:00 18.4 10 Norte 35 Norte 0 -- -- 32
2021-02-16 08:00:00 18.5 10 Norte 28 Noroeste 0 -- -- 29
2021-02-16 07:00:00 18.8 13 Norte 33 Norte 0 -- -- 27
2021-02-16 06:00:00 19.2 17 Norte 27 Norte 0 -- -- 27
2021-02-16 05:00:00 19.3 10 Nordeste 24 Norte 0 -- -- 25
2021-02-16 04:00:00 20 13 Norte 33 Norte 0 -- -- 24
2021-02-16 03:00:00 20.6 13 Nordeste 30 Noroeste 0 -- -- 24
2021-02-16 02:00:00 21.1 15 Norte 50 Este 0 -- -- 25
2021-02-16 01:00:00 21.7 9 Este 36 Sudeste 0 -- -- 23
2021-02-16 00:00:00 22.3 11 Norte 35 Norte 0 -- -- 21
2021-02-15 23:00:00 22.7 9 Norte 30 Este 0 -- -- 20
2021-02-15 22:00:00 23.3 11 Norte 23 Noroeste 0 -- -- 19
2021-02-15 21:00:00 23.1 11 Oeste 26 Nordeste 0 -- -- 19
2021-02-15 20:00:00 23 10 Norte 30 Sudeste 0 -- -- 18
2021-02-15 19:00:00 22.8 2 Este 15 Sur 0 -- -- 21
2021-02-15 18:00:00 25.2 9 Sudoeste 25 Sur 0 -- -- 31
2021-02-15 17:00:00 26.4 18 Sur 30 Sur 0 -- -- 30
2021-02-15 16:00:00 26.4 24 Sur 44 Sur 0 -- -- 33
2021-02-15 15:00:00 27.8 23 Sudoeste 40 Sur 0 -- -- 20
2021-02-15 14:00:00 26.8 18 Sudoeste 32 Sudoeste 0 -- -- 22
2021-02-15 13:00:00 24.3 10 Norte 27 Noroeste 0 -- -- 23
2021-02-15 12:00:00 24.4 8 Nordeste 30 Norte 0 -- -- 22
2021-02-15 11:00:00 23.7 13 Noroeste 30 Oeste 0 -- -- 22
2021-02-15 10:00:00 23.2 14 Norte 36 Norte 0 -- -- 23
2021-02-15 09:00:00 20.7 8 Nordeste 19 Nordeste 0 -- -- 25
2021-02-15 08:00:00 18.4 3 Norte 9 Norte 0 -- -- 30
2021-02-15 07:00:00 19.4 5 Norte 13 Norte 0 -- -- 27
2021-02-15 06:00:00 19 7 Sur 17 Sur 0 -- -- 49
2021-02-15 05:00:00 21.4 8 Nordeste 18 Noroeste 0 -- -- 22
2021-02-15 04:00:00 18.3 5 Norte 12 Norte 0 -- -- 29
2021-02-15 03:00:00 18.7 6 Nordeste 11 Norte 0 -- -- 27
2021-02-15 02:00:00 19.3 7 Norte 11 Nordeste 0 -- -- 27
2021-02-15 01:00:00 18.7 6 Norte 12 Norte 0 -- -- 32
2021-02-15 00:00:00 18.1 6 Norte 12 Norte 0 -- -- 36
2021-02-14 23:00:00 17.6 6 Norte 10 Norte 0 -- -- 40
2021-02-14 22:00:00 16.8 3 Norte 8 Nordeste 0 -- -- 57
2021-02-14 21:00:00 16.6 4 Norte 7 Norte 0 -- -- 75
2021-02-14 20:00:00 16.7 3 Norte 5 Norte 0 -- -- 76
2021-02-14 19:00:00 18.8 4 Sur 10 Sur 0 -- -- 69
2021-02-14 18:00:00 21.8 10 Sur 21 Sur 0 -- -- 61
2021-02-14 17:00:00 22.6 15 Sur 24 Sur 0 -- -- 60
2021-02-14 16:00:00 23.5 14 Sur 25 Sur 0 -- -- 59
2021-02-14 15:00:00 23.5 19 Sur 24 Sur 0 -- -- 61
2021-02-14 14:00:00 23 18 Sur 25 Sur 0 -- -- 63
2021-02-14 13:00:00 22.1 18 Sur 27 Sur 0 -- -- 66
2021-02-14 12:00:00 21.3 14 Sur 20 Sur 0 -- -- 69
2021-02-14 11:00:00 20.1 12 Sur 17 Sur 0 -- -- 71
2021-02-14 10:00:00 16.9 2 Sur 6 Sudoeste 0 -- -- 63
2021-02-14 09:00:00 14 4 Norte 10 Norte 0 -- -- 70
2021-02-14 08:00:00 13.3 4 Norte 9 Norte 0 -- -- 72
2021-02-14 07:00:00 13.2 0 Calma 8 Norte 0 -- -- 68
2021-02-14 06:00:00 13.3 4 Norte 10 Norte 0 -- -- 70
2021-02-14 05:00:00 13.6 0 Calma 11 Norte 0 -- -- 76
2021-02-14 04:00:00 13.5 3 Norte 7 Norte 0 -- -- 80
2021-02-14 03:00:00 13.7 2 Nordeste 6 Norte 0 -- -- 80
2021-02-14 02:00:00 13.9 4 Norte 8 Norte 0 -- -- 78
2021-02-14 01:00:00 13.8 0 Calma 9 Nordeste 0 -- -- 85
2021-02-14 00:00:00 14.2 3 Norte 7 Norte 0 -- -- 84
2021-02-13 23:00:00 15.2 0 Calma 7 Norte 0 -- -- 80
2021-02-13 22:00:00 15.7 2 Sudeste 8 Norte 0 -- -- 79
2021-02-13 21:00:00 16.3 5 Este 13 Norte 0 -- -- 78
2021-02-13 20:00:00 16.9 10 Nordeste 18 Norte 0 -- -- 76
2021-02-13 19:00:00 18.2 6 Sudoeste 14 Sur 0 -- -- 75
2021-02-13 18:00:00 21.1 13 Sur 25 Sur 0 -- -- 68
2021-02-13 17:00:00 22.5 17 Sur 29 Sur 0 -- -- 63
2021-02-13 16:00:00 23.2 19 Sur 28 Sur 0 -- -- 58
2021-02-13 15:00:00 23.5 18 Sur 28 Sur 0 -- -- 57
2021-02-13 14:00:00 23.3 16 Sur 25 Sur 0 -- -- 59
2021-02-13 13:00:00 22.1 19 Sur 24 Sur 0 -- -- 63
2021-02-13 12:00:00 21 18 Sur 25 Sur 0 -- -- 67
2021-02-13 07:00:00 12.6 5 Norte 12 Norte 0 -- -- 75
2021-02-13 06:00:00 13 6 Norte 14 Norte 0 -- -- 74
2021-02-13 05:00:00 13.2 6 Norte 13 Norte 0 -- -- 75
2021-02-13 04:00:00 13.6 6 Norte 13 Norte 0 -- -- 74
2021-02-13 03:00:00 14.4 7 Norte 13 Norte 0 -- -- 74
2021-02-13 02:00:00 14.9 9 Norte 13 Norte 0 -- -- 75
2021-02-13 01:00:00 15.8 3 Sudeste 20 Norte 0 -- -- 72
2021-02-13 00:00:00 14.7 3 Norte 8 Sur 0 -- -- 75
2021-02-12 23:00:00 15.2 3 Sudoeste 9 Noroeste 0 -- -- 72
2021-02-12 22:00:00 15.9 7 Norte 20 Este 0 -- -- 72
2021-02-12 21:00:00 16.8 9 Este 20 Nordeste 0 -- -- 66
2021-02-12 20:00:00 17 9 Nordeste 19 Nordeste 0 -- -- 69
2021-02-12 19:00:00 18.3 0 Calma 21 Sur 0 -- -- 66
2021-02-12 18:00:00 21.1 18 Sur 28 Sur 0 -- -- 57
2021-02-12 17:00:00 21.7 15 Sur 29 Sur 0 -- -- 54
2021-02-12 16:00:00 23.9 15 Sur 28 Sur 0 -- -- 52
2021-02-12 15:00:00 20.3 13 Este 26 Nordeste 0 -- -- 65
2021-02-12 14:00:00 23.3 17 Sur 25 Sur 0 -- -- 50
2021-02-12 13:00:00 22.2 16 Sur 26 Sur 0 -- -- 53
2021-02-12 12:00:00 21 21 Sur 26 Sur 0 -- -- 58
2021-02-12 11:00:00 18.5 6 Sur 10 Sur 0 -- -- 65
2021-02-12 10:00:00 15.8 0 Calma 5 Norte 0 -- -- 73
2021-02-12 09:00:00 13.2 4 Nordeste 13 Norte 0 -- -- 81
2021-02-12 08:00:00 13.1 2 Nordeste 14 Norte 0 -- -- 80
2021-02-12 07:00:00 13.2 7 Norte 13 Norte 0 -- -- 79
2021-02-12 06:00:00 13.1 5 Norte 13 Norte 0 -- -- 79
2021-02-12 05:00:00 13.6 6 Nordeste 13 Norte 0 -- -- 79
2021-02-12 04:00:00 13.7 9 Norte 12 Nordeste 0 -- -- 79
2021-02-12 03:00:00 13.8 7 Norte 11 Norte 0 -- -- 80
2021-02-12 02:00:00 13.9 6 Norte 12 Nordeste 0 -- -- 80
2021-02-12 01:00:00 14 4 Norte 10 Norte 0 -- -- 80
2021-02-12 00:00:00 13.8 4 Norte 9 Norte 0 -- -- 78
2021-02-11 23:00:00 13.7 5 Norte 11 Norte 0 -- -- 78
2021-02-11 22:00:00 14.4 4 Norte 7 Norte 0 -- -- 79
2021-02-11 21:00:00 14.9 4 Nordeste 9 Sur 0 -- -- 78
2021-02-11 20:00:00 16 8 Sur 18 Sur 0 -- -- 75
2021-02-11 19:00:00 17.2 10 Oeste 24 Norte 0 -- -- 68
2021-02-11 18:00:00 17.7 14 Noroeste 27 Norte 0 -- -- 65
2021-02-11 17:00:00 17.9 21 Norte 34 Norte 0 -- -- 66
2021-02-11 16:00:00 18.8 17 Norte 26 Nordeste 0 -- -- 63
2021-02-11 15:00:00 19.2 13 Nordeste 28 Norte 0 -- -- 60
2021-02-11 14:00:00 18.4 18 Norte 37 Noroeste 0 -- -- 62
2021-02-11 13:00:00 19.1 14 Noroeste 30 Noroeste 0 -- -- 60
2021-02-11 12:00:00 18.6 10 Sur 19 Sur 0 -- -- 67
2021-02-11 11:00:00 16.9 10 Sur 17 Sur 0 -- -- 67
2021-02-11 10:00:00 16.1 2 Nordeste 9 Este 0 -- -- 68
2021-02-11 09:00:00 13.4 8 Norte 12 Norte 0 -- -- 78
2021-02-11 08:00:00 12.7 5 Norte 11 Norte 0 -- -- 80
2021-02-11 07:00:00 12.8 3 Nordeste 10 Nordeste 0 -- -- 80
2021-02-11 06:00:00 13.3 5 Norte 9 Nordeste 0 -- -- 77
2021-02-11 05:00:00 13.5 5 Norte 10 Nordeste 0 -- -- 77
2021-02-11 04:00:00 13.9 6 Norte 14 Este 0 -- -- 77
2021-02-11 03:00:00 13.9 6 Norte 11 Norte 0 -- -- 79
2021-02-11 02:00:00 14.2 9 Norte 12 Norte 0 -- -- 82
2021-02-11 01:00:00 14.6 6 Norte 13 Nordeste 0 -- -- 83
2021-02-11 00:00:00 14.7 7 Norte 10 Nordeste 0 -- -- 83
2021-02-10 23:00:00 14.8 0 Calma 5 Norte 0 -- -- 82
2021-02-10 22:00:00 15.4 0 Calma 7 Norte 0 -- -- 81
2021-02-10 21:00:00 16 3 Norte 10 Nordeste 0 -- -- 79
2021-02-10 20:00:00 16.8 3 Sudoeste 14 Sur 0 -- -- 75
2021-02-10 19:00:00 17.8 10 Sur 22 Sur 0 -- -- 72
2021-02-10 18:00:00 20.5 16 Sur 24 Sur 0 -- -- 61
2021-02-10 17:00:00 21.1 16 Sur 25 Sur 0 -- -- 57
2021-02-10 16:00:00 22.4 19 Sur 28 Sur 0 -- -- 55
2021-02-10 15:00:00 22.9 18 Sur 28 Sur 0 -- -- 55
2021-02-10 14:00:00 22.5 19 Sur 29 Sur 0 -- -- 56
2021-02-10 13:00:00 21.4 20 Sur 27 Sur 0 -- -- 60
2021-02-10 12:00:00 20.4 15 Sur 21 Sur 0 -- -- 63
2021-02-10 11:00:00 18.6 9 Sur 15 Sur 0 -- -- 67
2021-02-10 10:00:00 15.6 0 Calma 6 Norte 0 -- -- 74
2021-02-10 09:00:00 13.5 5 Nordeste 8 Nordeste 0 -- -- 82
2021-02-10 08:00:00 12.8 7 Norte 14 Norte 0 -- -- 83
2021-02-10 07:00:00 12.6 5 Nordeste 12 Norte 0 -- -- 84
2021-02-10 06:00:00 12.8 9 Nordeste 12 Norte 0 -- -- 84
2021-02-10 05:00:00 13 7 Norte 12 Nordeste 0 -- -- 85
2021-02-10 04:00:00 13.3 6 Nordeste 10 Norte 0 -- -- 85
2021-02-10 03:00:00 14 4 Nordeste 10 Norte 0 -- -- 84
2021-02-10 02:00:00 13.9 6 Nordeste 9 Norte 0 -- -- 84
2021-02-10 01:00:00 14.4 7 Norte 12 Norte 0 -- -- 80
2021-02-10 00:00:00 14.6 7 Norte 10 Norte 0 -- -- 80
2021-02-09 23:00:00 15 8 Norte 11 Nordeste 0 -- -- 78
2021-02-09 22:00:00 15.9 2 Nordeste 8 Nordeste 0 -- -- 76
2021-02-09 21:00:00 16.2 6 Norte 11 Nordeste 0 -- -- 75
2021-02-09 20:00:00 16.2 10 Nordeste 20 Nordeste 0 -- -- 75
2021-02-09 19:00:00 16.7 10 Nordeste 18 Este 0 -- -- 72
2021-02-09 18:00:00 17.6 13 Nordeste 21 Sur 0 -- -- 68
2021-02-09 17:00:00 21.2 17 Sur 27 Sur 0 -- -- 59
2021-02-09 16:00:00 21.6 20 Sur 27 Sur 0 -- -- 57
2021-02-09 15:00:00 21.8 17 Sur 28 Sur 0 -- -- 56
2021-02-09 14:00:00 21.3 19 Sur 30 Sur 0 -- -- 57
2021-02-09 13:00:00 21.2 19 Sur 26 Sur 0 -- -- 57
2021-02-09 12:00:00 19.8 16 Sur 22 Sur 0 -- -- 61
2021-02-09 11:00:00 17.6 3 Sudoeste 12 Sur 0 -- -- 64
2021-02-09 10:00:00 15.7 8 Nordeste 11 Nordeste 0 -- -- 69
2021-02-09 09:00:00 12.8 9 Norte 14 Norte 0 -- -- 83
2021-02-09 08:00:00 12.7 8 Norte 12 Nordeste 0 -- -- 83
2021-02-09 07:00:00 12.2 0 Calma 13 Norte 0 -- -- 84
2021-02-09 06:00:00 12.7 11 Norte 14 Norte 0 -- -- 82
2021-02-09 05:00:00 12.7 11 Norte 15 Norte 0 -- -- 82
2021-02-09 04:00:00 12.6 5 Norte 13 Norte 0 -- -- 83
2021-02-09 03:00:00 13 8 Norte 15 Norte 0 -- -- 80
2021-02-09 02:00:00 13.6 7 Norte 13 Norte 0 -- -- 76
2021-02-09 01:00:00 14.8 6 Este 22 Nordeste 0 -- -- 72
2021-02-09 00:00:00 15 11 Nordeste 20 Nordeste 0 -- -- 75
2021-02-08 23:00:00 14.9 7 Nordeste 19 Nordeste 0 -- -- 77
2021-02-08 22:00:00 14.9 7 Norte 17 Nordeste 0 -- -- 79
2021-02-08 21:00:00 15.4 8 Norte 16 Nordeste 0 -- -- 79
2021-02-08 20:00:00 16.2 9 Norte 24 Norte 0 -- -- 78
2021-02-08 19:00:00 17.3 8 Sur 16 Sur 0 -- -- 72
2021-02-08 18:00:00 18.2 14 Sur 21 Sur 0 -- -- 70
2021-02-08 17:00:00 19.7 15 Sur 25 Sur 0 -- -- 65
2021-02-08 16:00:00 21.1 17 Sur 25 Sur 0 -- -- 59
2021-02-08 15:00:00 20.8 15 Sur 24 Sur 0 -- -- 60
2021-02-08 14:00:00 19.5 9 Sur 18 Sur 0 -- -- 64
2021-02-08 13:00:00 20.2 15 Sur 24 Sur 0 -- -- 60
2021-02-08 12:00:00 17.6 11 Sur 20 Sur 0 -- -- 68
2021-02-08 11:00:00 15.8 8 Nordeste 17 Este 0 -- -- 71
2021-02-08 10:00:00 14.4 11 Nordeste 17 Nordeste 0 -- -- 73
2021-02-08 09:00:00 13.8 10 Nordeste 18 Nordeste 0 -- -- 77
2021-02-08 08:00:00 13 8 Norte 19 Nordeste 0 -- -- 78
2021-02-08 07:00:00 13.3 9 Nordeste 17 Este 0 -- -- 79
2021-02-08 06:00:00 12.8 5 Norte 14 Nordeste 0 -- -- 81
2021-02-08 05:00:00 13.2 7 Nordeste 13 Nordeste 0 -- -- 78
2021-02-08 04:00:00 13.4 6 Nordeste 14 Nordeste 0 -- -- 78
2021-02-08 03:00:00 13 8 Norte 12 Norte 0 -- -- 80
2021-02-08 02:00:00 13.1 7 Norte 13 Nordeste 0 -- -- 78
2021-02-08 01:00:00 13.4 6 Norte 20 Nordeste 0 -- -- 77
2021-02-08 00:00:00 13.4 8 Norte 15 Norte 0 -- -- 78
2021-02-07 23:00:00 13.8 5 Norte 14 Nordeste 0 -- -- 77
2021-02-07 22:00:00 14.3 2 Oeste 15 Este 0 -- -- 75
2021-02-07 21:00:00 14.3 9 Nordeste 16 Nordeste 0 -- -- 79
2021-02-07 20:00:00 15 10 Nordeste 19 Nordeste 0 -- -- 77
2021-02-07 19:00:00 15.3 13 Nordeste 23 Norte 0 -- -- 78
2021-02-07 18:00:00 15.7 17 Norte 31 Norte 0 -- -- 76
2021-02-07 17:00:00 17.3 17 Norte 31 Noroeste 0 -- -- 66
2021-02-07 16:00:00 17.2 18 Norte 39 Norte 0 -- -- 68
2021-02-07 15:00:00 17 22 Norte 35 Norte 0 -- -- 69
2021-02-07 14:00:00 17 21 Norte 37 Noroeste 0 -- -- 62
2021-02-07 13:00:00 16.7 11 Norte 21 Sur 0 -- -- 64
2021-02-07 12:00:00 16.5 12 Sur 17 Sur 0 -- -- 69
2021-02-07 11:00:00 15.7 8 Sur 14 Sur 0 -- -- 68
2021-02-07 10:00:00 15.3 5 Nordeste 10 Nordeste 0 -- -- 69
2021-02-07 09:00:00 14.1 7 Norte 16 Nordeste 0 -- -- 74
2021-02-07 08:00:00 13.6 3 Este 16 Nordeste 0 -- -- 70
2021-02-07 07:00:00 14.3 14 Norte 36 Norte 0 -- -- 68
2021-02-07 06:00:00 13.9 9 Norte 32 Norte 0 -- -- 73
2021-02-07 05:00:00 14.2 9 Noroeste 30 Nordeste 0 -- -- 69
2021-02-07 04:00:00 14.5 14 Norte 33 Nordeste 0 -- -- 65
2021-02-07 03:00:00 14.4 17 Norte 38 Nordeste 0 -- -- 69
2021-02-07 02:00:00 14.4 16 Norte 39 Nordeste 0 -- -- 64
2021-02-07 01:00:00 14.6 17 Norte 48 Nordeste 0 -- -- 66
2021-02-07 00:00:00 14.5 16 Norte 44 Nordeste 0 -- -- 69
2021-02-06 23:00:00 14.6 27 Nordeste 48 Nordeste 0 -- -- 68
2021-02-06 22:00:00 14.7 14 Norte 42 Este 0 -- -- 72
2021-02-06 21:00:00 14 20 Norte 51 Nordeste 0 -- -- 70
2021-02-06 20:00:00 14.7 17 Norte 41 Norte 0 -- -- 70
2021-02-06 19:00:00 14.8 24 Norte 49 Norte 0 -- -- 70
2021-02-06 18:00:00 14.7 22 Norte 50 Noroeste 0 -- -- 69
2021-02-06 17:00:00 15.3 20 Norte 50 Nordeste 0 -- -- 67
2021-02-06 16:00:00 16 23 Norte 53 Nordeste 0 -- -- 63
2021-02-06 15:00:00 15.3 18 Norte 44 Noroeste 0 -- -- 65
2021-02-06 14:00:00 15.2 18 Norte 44 Norte 0 -- -- 66
2021-02-06 13:00:00 15.3 21 Norte 45 Norte 0 -- -- 65
2021-02-06 12:00:00 15.2 18 Norte 47 Nordeste 0 -- -- 64
2021-02-06 11:00:00 15.2 19 Norte 48 Norte 0 -- -- 65
2021-02-06 10:00:00 14.4 13 Norte 40 Norte 0 -- -- 66
2021-02-06 09:00:00 13 9 Norte 39 Norte 0 -- -- 69
2021-02-06 08:00:00 13.2 16 Norte 40 Norte 0 -- -- 67
2021-02-06 07:00:00 13.4 24 Norte 59 Norte 0 -- -- 66
2021-02-06 06:00:00 13.2 21 Norte 51 Noroeste 0 -- -- 66
2021-02-06 05:00:00 13.3 19 Norte 55 Nordeste 0 -- -- 62
2021-02-06 04:00:00 13.2 24 Nordeste 62 Nordeste 0 -- -- 62
2021-02-06 03:00:00 12.6 15 Norte 56 Nordeste 0 -- -- 73
2021-02-06 02:00:00 12.4 23 Nordeste 49 Nordeste 0.4 -- -- 73
2021-02-06 01:00:00 13 20 Nordeste 66 Nordeste 0 -- -- 68
2021-02-06 00:00:00 12.8 22 Nordeste 49 Nordeste 0.2 -- -- 70
2021-02-05 23:00:00 12.6 26 Nordeste 45 Nordeste 0 -- -- 71
2021-02-05 22:00:00 12.4 23 Norte 43 Norte 0.2 -- -- 74
2021-02-05 21:00:00 12 17 Norte 35 Norte 0 -- -- 75
2021-02-05 20:00:00 11.3 16 Norte 42 Noroeste 0.4 -- -- 75
2021-02-05 19:00:00 11.7 23 Norte 47 Nordeste 0.2 -- -- 76
2021-02-05 18:00:00 12.7 20 Norte 40 Norte 0 -- -- 68
2021-02-05 17:00:00 12.8 21 Norte 44 Norte 0 -- -- 73
2021-02-05 16:00:00 13.3 21 Norte 48 Noroeste 0 -- -- 66
2021-02-05 15:00:00 13.1 24 Norte 48 Norte 0 -- -- 68
2021-02-05 14:00:00 13.2 20 Norte 42 Noroeste 0 -- -- 74
2021-02-05 13:00:00 12.1 31 Norte 61 Noroeste 1.2 -- -- 78
2021-02-05 12:00:00 12.3 22 Norte 44 Norte 1 -- -- 77
2021-02-05 11:00:00 13 20 Nordeste 38 Norte 0 -- -- 71
2021-02-05 10:00:00 12.5 18 Norte 41 Nordeste 0 -- -- 72
2021-02-05 09:00:00 11.6 19 Norte 36 Nordeste 0 -- -- 75
2021-02-05 08:00:00 11 19 Norte 38 Nordeste 0 -- -- 76
2021-02-05 07:00:00 10.7 16 Norte 44 Norte 1 -- -- 82
2021-02-05 06:00:00 11.3 13 Norte 27 Norte 0.2 -- -- 79
2021-02-05 05:00:00 11.9 17 Norte 25 Norte 0 -- -- 71
2021-02-05 04:00:00 11.6 17 Norte 32 Norte 0 -- -- 70
2021-02-05 03:00:00 11.1 18 Norte 30 Norte 0.2 -- -- 72
2021-02-05 02:00:00 10.5 15 Nordeste 37 Norte 0.4 -- -- 83
2021-02-05 01:00:00 12.3 18 Norte 32 Norte 0 -- -- 68
2021-02-05 00:00:00 11.7 7 Norte 24 Norte 1.2 -- -- 82
2021-02-04 23:00:00 12.6 13 Noroeste 39 Nordeste 2.2 -- -- 75
2021-02-04 22:00:00 13.6 23 Norte 34 Norte 0 -- -- 72
2021-02-04 21:00:00 13.9 20 Norte 29 Norte 0 -- -- 68
2021-02-04 20:00:00 13.8 18 Norte 37 Nordeste 0 -- -- 67
2021-02-04 19:00:00 14.5 18 Nordeste 45 Norte 0 -- -- 64
2021-02-04 18:00:00 15.1 16 Noroeste 42 Nordeste 0 -- -- 59
2021-02-04 17:00:00 15.8 26 Nordeste 41 Nordeste 0 -- -- 60
2021-02-04 16:00:00 15.9 18 Norte 34 Sur 0 -- -- 64
2021-02-04 15:00:00 20.5 19 Sur 38 Sur 0 -- -- 48
2021-02-04 14:00:00 21.1 16 Sur 36 Sur 0 -- -- 50
2021-02-04 13:00:00 21.1 24 Sur 37 Sur 0 -- -- 56
2021-02-04 12:00:00 16.6 10 Nordeste 24 Nordeste 0 -- -- 70
2021-02-04 11:00:00 15.2 14 Nordeste 24 Este 0 -- -- 75
2021-02-04 10:00:00 14.6 11 Este 24 Nordeste 0 -- -- 82
2021-02-04 09:00:00 14.9 14 Norte 24 Norte 0 -- -- 82
2021-02-04 08:00:00 14.7 15 Norte 24 Norte 0 -- -- 82
2021-02-04 07:00:00 15 6 Nordeste 17 Norte 0 -- -- 79
2021-02-04 06:00:00 14.7 8 Norte 21 Norte 0 -- -- 78
2021-02-04 05:00:00 13.8 0 Calma 6 Sudeste 0 -- -- 79
2021-02-04 04:00:00 13.4 0 Calma 12 Norte 0 -- -- 79
2021-02-04 03:00:00 13.8 7 Nordeste 13 Este 0 -- -- 79
2021-02-04 02:00:00 14.8 9 Nordeste 17 Norte 0 -- -- 76
2021-02-04 01:00:00 14.7 9 Nordeste 18 Nordeste 0 -- -- 78
2021-02-04 00:00:00 14.9 10 Nordeste 14 Nordeste 0 -- -- 78